createdAt,value
2022-09-02T00:03:50.525Z,0.00
2022-09-02T00:08:50.474Z,0.00
2022-09-02T00:13:50.413Z,0.00
2022-09-02T00:18:50.380Z,0.00
2022-09-02T00:23:50.378Z,0.00
2022-09-02T00:28:55.780Z,0.00
2022-09-02T00:33:51.275Z,0.00
2022-09-02T00:38:50.236Z,0.00
2022-09-02T00:43:50.107Z,0.00
2022-09-02T00:48:50.038Z,0.00
2022-09-02T00:53:49.998Z,0.00
2022-09-02T00:58:49.947Z,0.00
2022-09-02T01:03:49.863Z,0.00
2022-09-02T01:08:49.822Z,0.00
2022-09-02T01:13:49.903Z,0.00
2022-09-02T01:18:49.927Z,0.00
2022-09-02T01:23:49.663Z,0.00
2022-09-02T01:28:49.695Z,0.00
2022-09-02T01:33:58.494Z,0.00
2022-09-02T01:38:49.494Z,0.00
2022-09-02T01:43:49.430Z,0.00
2022-09-02T01:48:49.383Z,0.00
2022-09-02T01:53:49.312Z,0.00
2022-09-02T01:58:49.259Z,0.00
2022-09-02T02:03:49.209Z,0.00
2022-09-02T02:08:49.223Z,0.00
2022-09-02T02:13:49.090Z,0.00
2022-09-02T02:18:49.071Z,0.00
2022-09-02T02:23:49.017Z,0.00
2022-09-02T02:28:48.934Z,0.00
2022-09-02T02:33:48.870Z,0.00
2022-09-02T02:38:48.809Z,0.00
2022-09-02T02:43:48.829Z,0.00
2022-09-02T02:48:48.714Z,0.00
2022-09-02T02:53:49.740Z,0.00
2022-09-02T02:58:48.587Z,0.00
2022-09-02T03:03:48.622Z,0.00
2022-09-02T03:08:48.562Z,0.00
2022-09-02T03:13:48.441Z,0.00
2022-09-02T03:18:48.368Z,0.00
2022-09-02T03:23:48.308Z,0.00
2022-09-02T03:28:48.271Z,0.00
2022-09-02T03:33:48.198Z,0.00
2022-09-02T03:38:48.187Z,0.00
2022-09-02T03:43:48.112Z,0.00
2022-09-02T03:48:48.041Z,0.00
2022-09-02T03:53:47.978Z,0.00
2022-09-02T03:58:47.959Z,0.00
2022-09-02T04:03:47.867Z,0.00
2022-09-02T04:08:47.829Z,0.00
2022-09-02T04:13:47.765Z,0.00
2022-09-02T04:18:47.706Z,0.00
2022-09-02T04:23:47.669Z,0.00
2022-09-02T04:28:47.666Z,0.00
2022-09-02T04:33:47.544Z,5.62
2022-09-02T04:38:47.872Z,11.25
2022-09-02T04:43:47.439Z,16.88
2022-09-02T04:48:47.459Z,28.12
2022-09-02T04:53:47.328Z,33.75
2022-09-02T04:58:47.279Z,45.00
2022-09-02T05:03:47.205Z,56.25
2022-09-02T05:08:47.160Z,61.88
2022-09-02T05:13:47.147Z,67.50
2022-09-02T05:18:47.094Z,84.38
2022-09-02T05:23:46.981Z,106.88
2022-09-02T05:28:46.969Z,135.00
2022-09-02T05:33:46.862Z,174.38
2022-09-02T05:38:46.854Z,225.00
2022-09-02T05:43:46.753Z,270.00
2022-09-02T05:48:46.724Z,309.38
2022-09-02T05:53:46.751Z,360.00
2022-09-02T05:58:46.612Z,382.50
2022-09-02T06:03:46.694Z,399.38
2022-09-02T06:08:46.586Z,438.75
2022-09-02T06:13:46.525Z,438.75
2022-09-02T06:18:46.453Z,438.75
2022-09-02T06:23:46.312Z,455.62
2022-09-02T06:28:46.286Z,523.12
2022-09-02T06:33:46.221Z,646.88
2022-09-02T06:38:46.235Z,607.50
2022-09-02T06:43:46.118Z,528.75
2022-09-02T06:48:46.058Z,641.25
2022-09-02T06:53:46.008Z,770.62
2022-09-02T06:58:45.944Z,961.88
2022-09-02T07:03:45.922Z,978.75
2022-09-02T07:08:45.877Z,933.75
2022-09-02T07:13:45.819Z,894.38
2022-09-02T07:18:45.849Z,911.25
2022-09-02T07:23:45.699Z,928.12
2022-09-02T07:28:45.648Z,967.50
2022-09-02T07:33:45.536Z,967.50
2022-09-02T07:38:54.350Z,1113.75
2022-09-02T07:43:48.435Z,961.88
2022-09-02T07:48:46.427Z,990.00
2022-09-02T07:53:45.317Z,2227.50
2022-09-02T07:58:45.279Z,1895.62
2022-09-02T08:03:45.204Z,3375.00
2022-09-02T08:08:45.154Z,3211.88
2022-09-02T08:13:45.113Z,1513.12
2022-09-02T08:18:45.037Z,1046.25
2022-09-02T08:23:45.347Z,1080.00
2022-09-02T08:28:44.938Z,2070.00
2022-09-02T08:33:44.892Z,1642.50
2022-09-02T08:38:44.820Z,1732.50
2022-09-02T08:43:44.795Z,1873.12
2022-09-02T08:48:44.794Z,1833.75
2022-09-02T08:53:44.696Z,2165.62
2022-09-02T08:58:44.620Z,2266.88
2022-09-02T09:03:44.599Z,2160.00
2022-09-02T09:08:45.558Z,2491.88
2022-09-02T09:13:44.567Z,2340.00
2022-09-02T09:18:44.417Z,2958.75
2022-09-02T09:23:44.436Z,3403.12
2022-09-02T09:28:44.309Z,3065.62
2022-09-02T09:33:44.337Z,1794.38
2022-09-02T09:38:44.222Z,2345.62
2022-09-02T09:43:44.167Z,4578.75
2022-09-02T09:48:44.182Z,1541.25
2022-09-02T09:53:44.062Z,1518.75
2022-09-02T09:58:44.103Z,1980.00
2022-09-02T10:03:43.950Z,4477.50
2022-09-02T10:08:43.896Z,2053.12
2022-09-02T10:13:43.858Z,2508.75
2022-09-02T10:18:44.810Z,1231.88
2022-09-02T10:23:44.733Z,1209.38
2022-09-02T10:28:43.685Z,1428.75
2022-09-02T10:33:43.622Z,1333.12
2022-09-02T10:38:43.579Z,1215.00
2022-09-02T10:43:43.523Z,1417.50
2022-09-02T10:48:43.478Z,2469.38
2022-09-02T10:53:43.420Z,1940.62
2022-09-02T10:58:43.398Z,1580.62
2022-09-02T11:03:43.430Z,1541.25
2022-09-02T11:08:43.266Z,1496.25
2022-09-02T11:13:43.201Z,1451.25
2022-09-02T11:18:43.150Z,1541.25
2022-09-02T11:23:43.103Z,1569.38
2022-09-02T11:28:43.152Z,1670.62
2022-09-02T11:33:42.999Z,1861.88
2022-09-02T11:38:42.957Z,1687.50
2022-09-02T11:43:42.975Z,1586.25
2022-09-02T11:48:42.876Z,1873.12
2022-09-02T11:53:42.901Z,4938.75
2022-09-02T11:58:42.723Z,3673.12
2022-09-02T12:04:06.770Z,1670.62
2022-09-02T12:08:43.668Z,1636.88
2022-09-02T12:13:42.609Z,3065.62
2022-09-02T12:18:42.534Z,2407.50
2022-09-02T12:23:42.456Z,1918.12
2022-09-02T12:28:42.419Z,4005.00
2022-09-02T12:33:42.364Z,4365.00
2022-09-02T12:38:42.307Z,4471.88
2022-09-02T12:43:42.278Z,2863.12
2022-09-02T12:48:42.273Z,4280.62
2022-09-02T12:53:42.166Z,3780.00
2022-09-02T12:58:42.135Z,3481.88
2022-09-02T13:03:42.076Z,2818.12
2022-09-02T13:08:42.029Z,2244.38
2022-09-02T13:13:41.981Z,1957.50
2022-09-02T13:18:41.918Z,1951.88
2022-09-02T13:23:41.870Z,2047.50
2022-09-02T13:28:41.862Z,2109.38
2022-09-02T13:33:42.703Z,2148.75
2022-09-02T13:38:51.590Z,2182.50
2022-09-02T13:43:41.741Z,804.38
2022-09-02T13:48:41.641Z,2390.62
2022-09-02T13:53:58.986Z,2351.25
2022-09-02T13:58:42.621Z,2137.50
2022-09-02T14:03:41.543Z,1518.75
2022-09-02T14:08:41.416Z,720.00
2022-09-02T14:13:41.398Z,1738.12
2022-09-02T14:18:41.309Z,1890.00
2022-09-02T14:23:41.336Z,1805.62
2022-09-02T14:28:41.235Z,686.25
2022-09-02T14:33:41.152Z,618.75
2022-09-02T14:38:41.089Z,607.50
2022-09-02T14:43:41.039Z,669.38
2022-09-02T14:48:41.008Z,765.00
2022-09-02T14:53:40.972Z,804.38
2022-09-02T14:58:40.897Z,714.38
2022-09-02T15:03:40.824Z,641.25
2022-09-02T15:08:40.888Z,585.00
2022-09-02T15:13:40.733Z,675.00
2022-09-02T15:18:40.770Z,669.38
2022-09-02T15:23:41.180Z,652.50
2022-09-02T15:28:40.560Z,585.00
2022-09-02T15:33:41.588Z,601.88
2022-09-02T15:38:40.510Z,511.88
2022-09-02T15:43:40.391Z,461.25
2022-09-02T15:48:40.345Z,427.50
2022-09-02T15:53:40.273Z,393.75
2022-09-02T15:58:40.223Z,371.25
2022-09-02T16:03:40.185Z,376.88
2022-09-02T16:08:40.105Z,371.25
2022-09-02T16:13:40.056Z,371.25
2022-09-02T16:18:40.028Z,365.62
2022-09-02T16:23:39.947Z,354.38
2022-09-02T16:28:39.910Z,348.75
2022-09-02T16:33:39.853Z,343.12
2022-09-02T16:38:39.839Z,331.88
2022-09-02T16:43:39.742Z,315.00
2022-09-02T16:48:39.682Z,298.12
2022-09-02T16:53:39.726Z,292.50
2022-09-02T16:58:39.664Z,298.12
2022-09-02T17:03:39.605Z,264.38
2022-09-02T17:08:39.452Z,241.88
2022-09-02T17:13:39.588Z,225.00
2022-09-02T17:18:41.488Z,208.12
2022-09-02T17:23:39.297Z,191.25
2022-09-02T17:28:39.239Z,174.38
2022-09-02T17:33:39.176Z,163.12
2022-09-02T17:38:39.116Z,151.88
2022-09-02T17:43:39.081Z,135.00
2022-09-02T17:48:59.335Z,112.50
2022-09-02T17:53:40.018Z,90.00
2022-09-02T17:58:38.941Z,67.50
2022-09-02T18:03:39.032Z,50.62
2022-09-02T18:08:38.800Z,33.75
2022-09-02T18:13:38.862Z,22.50
2022-09-02T18:18:38.702Z,11.25
2022-09-02T18:23:38.663Z,5.62
2022-09-02T18:28:38.614Z,0.00
2022-09-02T18:33:38.520Z,0.00
2022-09-02T18:38:38.474Z,0.00
2022-09-02T18:43:38.593Z,0.00
2022-09-02T18:48:38.366Z,0.00
2022-09-02T18:53:38.292Z,0.00
2022-09-02T18:58:38.241Z,0.00
2022-09-02T19:03:38.263Z,0.00
2022-09-02T19:08:38.224Z,0.00
2022-09-02T19:13:38.096Z,0.00
2022-09-02T19:18:38.012Z,0.00
2022-09-02T19:23:38.005Z,0.00
2022-09-02T19:28:38.062Z,0.00
2022-09-02T19:33:37.949Z,0.00
2022-09-02T19:38:37.904Z,0.00
2022-09-02T19:43:46.706Z,0.00
2022-09-02T19:48:37.693Z,0.00
2022-09-02T19:53:37.654Z,0.00
2022-09-02T19:58:37.614Z,0.00
2022-09-02T20:03:37.575Z,0.00
2022-09-02T20:08:37.495Z,0.00
2022-09-02T20:13:41.384Z,0.00
2022-09-02T20:18:37.371Z,0.00
2022-09-02T20:23:37.403Z,0.00
2022-09-02T20:28:37.241Z,0.00
2022-09-02T20:33:37.243Z,0.00
2022-09-02T20:38:38.144Z,0.00
2022-09-02T20:43:37.206Z,0.00
2022-09-02T20:48:37.126Z,0.00
2022-09-02T20:53:37.030Z,0.00
2022-09-02T20:58:36.936Z,0.00
2022-09-02T21:03:37.197Z,0.00
2022-09-02T21:08:36.905Z,0.00
2022-09-02T21:13:36.831Z,0.00
2022-09-02T21:18:40.139Z,0.00
2022-09-02T21:23:36.726Z,0.00
2022-09-02T21:28:36.615Z,0.00
2022-09-02T21:33:36.577Z,0.00
2022-09-02T21:38:36.616Z,0.00
2022-09-02T21:43:36.537Z,0.00
2022-09-02T21:48:36.442Z,0.00
2022-09-02T21:53:38.487Z,0.00
2022-09-02T21:58:36.763Z,0.00
2022-09-02T22:03:37.318Z,0.00
2022-09-02T22:08:38.184Z,0.00
2022-09-02T22:13:36.118Z,0.00
2022-09-02T22:18:36.093Z,0.00
2022-09-02T22:23:36.035Z,0.00
2022-09-02T22:28:35.976Z,0.00
2022-09-02T22:33:37.033Z,0.00
2022-09-02T22:38:36.072Z,0.00
2022-09-02T22:43:41.902Z,0.00
2022-09-02T22:48:36.735Z,0.00
2022-09-02T22:53:35.661Z,0.00
2022-09-02T22:58:35.587Z,0.00
2022-09-02T23:03:35.598Z,0.00
2022-09-02T23:08:35.509Z,0.00
2022-09-02T23:13:35.443Z,0.00
2022-09-02T23:18:35.363Z,0.00
2022-09-02T23:23:35.521Z,0.00
2022-09-02T23:28:35.409Z,0.00
2022-09-02T23:33:35.235Z,0.00
2022-09-02T23:38:35.151Z,0.00
2022-09-02T23:43:35.094Z,0.00
2022-09-02T23:48:35.034Z,0.00
2022-09-02T23:53:34.984Z,0.00
2022-09-02T23:58:35.020Z,0.00
